sensor_id;sensor_type;location;lat;lon;timestamp;pressure;altitude;pressure_sealevel;temperature;humidity
66547;BME280;53400;50.364;14.874;2022-08-03T00:01:33;98824.50;;;19.47;66.18
66547;BME280;53400;50.364;14.874;2022-08-03T00:03:59;98828.34;;;19.46;66.33
66547;BME280;53400;50.364;14.874;2022-08-03T00:06:26;98824.72;;;19.51;66.15
66547;BME280;53400;50.364;14.874;2022-08-03T00:08:52;98820.06;;;19.37;66.54
66547;BME280;53400;50.364;14.874;2022-08-03T00:11:18;98818.63;;;19.26;66.69
66547;BME280;53400;50.364;14.874;2022-08-03T00:13:44;98821.91;;;19.23;67.33
66547;BME280;53400;50.364;14.874;2022-08-03T00:16:10;98826.41;;;18.81;68.74
66547;BME280;53400;50.364;14.874;2022-08-03T00:18:36;98816.72;;;18.75;69.23
66547;BME280;53400;50.364;14.874;2022-08-03T00:21:03;98814.53;;;18.53;69.62
66547;BME280;53400;50.364;14.874;2022-08-03T00:23:30;98812.78;;;18.62;69.10
66547;BME280;53400;50.364;14.874;2022-08-03T00:25:56;98817.56;;;18.70;68.55
66547;BME280;53400;50.364;14.874;2022-08-03T00:28:22;98817.41;;;18.80;67.95
66547;BME280;53400;50.364;14.874;2022-08-03T00:30:48;98815.22;;;18.83;67.89
66547;BME280;53400;50.364;14.874;2022-08-03T00:33:14;98815.00;;;18.60;68.75
66547;BME280;53400;50.364;14.874;2022-08-03T00:35:39;98815.44;;;18.67;68.18
66547;BME280;53400;50.364;14.874;2022-08-03T00:38:05;98817.13;;;18.63;68.61
66547;BME280;53400;50.364;14.874;2022-08-03T00:40:33;98817.56;;;18.51;68.87
66547;BME280;53400;50.364;14.874;2022-08-03T00:43:01;98817.63;;;18.46;69.29
66547;BME280;53400;50.364;14.874;2022-08-03T00:45:29;98819.09;;;18.57;69.14
66547;BME280;53400;50.364;14.874;2022-08-03T00:47:56;98816.88;;;18.41;69.76
66547;BME280;53400;50.364;14.874;2022-08-03T00:50:23;98808.88;;;18.30;70.14
66547;BME280;53400;50.364;14.874;2022-08-03T00:52:51;98816.19;;;18.11;71.18
66547;BME280;53400;50.364;14.874;2022-08-03T00:55:17;98813.88;;;17.99;71.54
66547;BME280;53400;50.364;14.874;2022-08-03T00:57:45;98814.44;;;17.96;72.25
66547;BME280;53400;50.364;14.874;2022-08-03T01:00:13;98818.88;;;17.87;72.55
66547;BME280;53400;50.364;14.874;2022-08-03T01:02:40;98816.84;;;17.98;72.23
66547;BME280;53400;50.364;14.874;2022-08-03T01:05:06;98813.28;;;18.02;71.95
66547;BME280;53400;50.364;14.874;2022-08-03T01:07:41;98808.72;;;18.22;71.34
66547;BME280;53400;50.364;14.874;2022-08-03T01:10:17;98809.41;;;18.32;70.52
66547;BME280;53400;50.364;14.874;2022-08-03T01:12:53;98813.66;;;18.39;70.23
66547;BME280;53400;50.364;14.874;2022-08-03T01:15:28;98807.78;;;18.31;70.51
66547;BME280;53400;50.364;14.874;2022-08-03T01:17:59;98807.38;;;18.19;70.52
66547;BME280;53400;50.364;14.874;2022-08-03T01:20:32;98817.06;;;18.25;70.45
66547;BME280;53400;50.364;14.874;2022-08-03T01:26:24;98817.25;;;18.53;69.37
66547;BME280;53400;50.364;14.874;2022-08-03T01:29:05;98817.19;;;18.58;69.51
66547;BME280;53400;50.364;14.874;2022-08-03T01:31:38;98817.97;;;18.58;69.47
66547;BME280;53400;50.364;14.874;2022-08-03T01:34:06;98811.16;;;18.61;69.14
66547;BME280;53400;50.364;14.874;2022-08-03T01:36:37;98808.78;;;18.60;69.82
66547;BME280;53400;50.364;14.874;2022-08-03T01:39:05;98806.09;;;18.36;70.77
66547;BME280;53400;50.364;14.874;2022-08-03T01:41:39;98806.47;;;18.48;70.23
66547;BME280;53400;50.364;14.874;2022-08-03T01:44:09;98805.22;;;18.40;70.50
66547;BME280;53400;50.364;14.874;2022-08-03T01:46:37;98802.81;;;18.39;70.88
66547;BME280;53400;50.364;14.874;2022-08-03T01:49:07;98809.41;;;18.32;71.31
66547;BME280;53400;50.364;14.874;2022-08-03T01:51:36;98803.97;;;18.32;71.25
66547;BME280;53400;50.364;14.874;2022-08-03T01:54:03;98807.94;;;18.40;71.29
66547;BME280;53400;50.364;14.874;2022-08-03T01:56:30;98801.97;;;18.19;71.92
66547;BME280;53400;50.364;14.874;2022-08-03T01:58:59;98809.25;;;18.24;72.12
66547;BME280;53400;50.364;14.874;2022-08-03T02:01:28;98808.81;;;18.36;71.27
66547;BME280;53400;50.364;14.874;2022-08-03T02:03:56;98806.97;;;18.31;71.43
66547;BME280;53400;50.364;14.874;2022-08-03T02:06:25;98801.69;;;18.21;72.05
66547;BME280;53400;50.364;14.874;2022-08-03T02:08:52;98805.59;;;18.33;71.40
66547;BME280;53400;50.364;14.874;2022-08-03T02:11:20;98804.31;;;18.26;71.61
66547;BME280;53400;50.364;14.874;2022-08-03T02:13:47;98801.16;;;18.19;71.32
66547;BME280;53400;50.364;14.874;2022-08-03T02:16:13;98806.53;;;18.24;71.32
66547;BME280;53400;50.364;14.874;2022-08-03T02:18:39;98808.94;;;18.01;71.75
66547;BME280;53400;50.364;14.874;2022-08-03T02:21:08;98800.53;;;18.03;71.57
66547;BME280;53400;50.364;14.874;2022-08-03T02:23:35;98810.91;;;18.20;71.29
66547;BME280;53400;50.364;14.874;2022-08-03T02:26:02;98805.00;;;17.94;72.25
66547;BME280;53400;50.364;14.874;2022-08-03T02:28:31;98804.09;;;17.74;72.51
66547;BME280;53400;50.364;14.874;2022-08-03T02:31:02;98800.28;;;17.80;72.36
66547;BME280;53400;50.364;14.874;2022-08-03T02:33:32;98796.47;;;17.76;72.29
66547;BME280;53400;50.364;14.874;2022-08-03T02:36:00;98806.53;;;18.00;71.81
66547;BME280;53400;50.364;14.874;2022-08-03T02:38:31;98801.16;;;17.41;73.63
66547;BME280;53400;50.364;14.874;2022-08-03T02:41:00;98803.53;;;17.48;73.33
66547;BME280;53400;50.364;14.874;2022-08-03T02:43:29;98797.06;;;17.15;75.10
66547;BME280;53400;50.364;14.874;2022-08-03T02:45:56;98798.16;;;17.14;75.14
66547;BME280;53400;50.364;14.874;2022-08-03T02:48:25;98796.69;;;17.27;74.73
66547;BME280;53400;50.364;14.874;2022-08-03T02:50:54;98797.38;;;17.13;75.39
66547;BME280;53400;50.364;14.874;2022-08-03T02:53:22;98790.63;;;17.11;75.53
66547;BME280;53400;50.364;14.874;2022-08-03T02:55:51;98793.59;;;17.09;75.82
66547;BME280;53400;50.364;14.874;2022-08-03T02:58:19;98798.69;;;17.16;75.63
66547;BME280;53400;50.364;14.874;2022-08-03T03:00:49;98804.06;;;17.21;75.29
66547;BME280;53400;50.364;14.874;2022-08-03T03:03:17;98802.22;;;17.16;75.39
66547;BME280;53400;50.364;14.874;2022-08-03T03:05:44;98796.94;;;17.01;76.37
66547;BME280;53400;50.364;14.874;2022-08-03T03:08:11;98796.66;;;16.97;77.01
66547;BME280;53400;50.364;14.874;2022-08-03T03:10:39;98805.19;;;17.15;75.91
66547;BME280;53400;50.364;14.874;2022-08-03T03:13:08;98806.28;;;17.14;75.93
66547;BME280;53400;50.364;14.874;2022-08-03T03:15:34;98805.19;;;17.15;76.22
66547;BME280;53400;50.364;14.874;2022-08-03T03:18:02;98805.56;;;16.98;76.61
66547;BME280;53400;50.364;14.874;2022-08-03T03:20:29;98809.22;;;16.83;77.44
66547;BME280;53400;50.364;14.874;2022-08-03T03:22:58;98805.63;;;16.93;76.78
66547;BME280;53400;50.364;14.874;2022-08-03T03:25:25;98810.19;;;16.97;76.38
66547;BME280;53400;50.364;14.874;2022-08-03T03:27:52;98813.81;;;16.83;77.21
66547;BME280;53400;50.364;14.874;2022-08-03T03:30:19;98814.94;;;16.77;77.88
66547;BME280;53400;50.364;14.874;2022-08-03T03:32:45;98819.81;;;16.69;78.38
66547;BME280;53400;50.364;14.874;2022-08-03T03:35:12;98812.00;;;16.68;78.32
66547;BME280;53400;50.364;14.874;2022-08-03T03:37:38;98816.88;;;16.66;78.33
66547;BME280;53400;50.364;14.874;2022-08-03T03:40:05;98821.16;;;16.72;78.18
66547;BME280;53400;50.364;14.874;2022-08-03T03:42:33;98825.78;;;16.66;78.94
66547;BME280;53400;50.364;14.874;2022-08-03T03:45:02;98820.41;;;16.61;79.06
66547;BME280;53400;50.364;14.874;2022-08-03T03:47:29;98820.94;;;16.63;78.86
66547;BME280;53400;50.364;14.874;2022-08-03T03:49:56;98819.66;;;16.56;79.28
66547;BME280;53400;50.364;14.874;2022-08-03T03:52:22;98815.78;;;16.67;78.58
66547;BME280;53400;50.364;14.874;2022-08-03T03:54:48;98824.13;;;16.76;78.07
66547;BME280;53400;50.364;14.874;2022-08-03T03:57:14;98818.25;;;16.63;78.85
66547;BME280;53400;50.364;14.874;2022-08-03T03:59:40;98815.81;;;16.62;78.82
66547;BME280;53400;50.364;14.874;2022-08-03T04:02:07;98822.03;;;16.62;78.86
66547;BME280;53400;50.364;14.874;2022-08-03T04:04:35;98824.19;;;16.60;79.00
66547;BME280;53400;50.364;14.874;2022-08-03T04:07:22;98821.69;;;16.79;78.28
66547;BME280;53400;50.364;14.874;2022-08-03T04:10:11;98820.97;;;17.03;77.04
66547;BME280;53400;50.364;14.874;2022-08-03T04:12:56;98819.16;;;17.27;76.38
66547;BME280;53400;50.364;14.874;2022-08-03T04:15:24;98821.75;;;17.37;75.42
66547;BME280;53400;50.364;14.874;2022-08-03T04:17:52;98834.22;;;17.38;75.13
66547;BME280;53400;50.364;14.874;2022-08-03T04:20:25;98823.53;;;17.23;76.27
66547;BME280;53400;50.364;14.874;2022-08-03T04:22:53;98829.25;;;17.51;75.27
66547;BME280;53400;50.364;14.874;2022-08-03T04:25:20;98843.28;;;17.53;74.80
66547;BME280;53400;50.364;14.874;2022-08-03T04:27:49;98835.78;;;17.45;75.56
66547;BME280;53400;50.364;14.874;2022-08-03T04:30:17;98834.84;;;17.88;74.64
66547;BME280;53400;50.364;14.874;2022-08-03T04:32:44;98845.41;;;17.90;73.58
66547;BME280;53400;50.364;14.874;2022-08-03T04:35:16;98851.16;;;18.07;73.31
66547;BME280;53400;50.364;14.874;2022-08-03T04:37:46;98843.88;;;18.70;70.71
66547;BME280;53400;50.364;14.874;2022-08-03T04:40:17;98847.34;;;18.75;70.57
66547;BME280;53400;50.364;14.874;2022-08-03T04:42:45;98848.09;;;18.81;70.43
66547;BME280;53400;50.364;14.874;2022-08-03T04:45:12;98849.13;;;19.37;68.56
66547;BME280;53400;50.364;14.874;2022-08-03T04:47:40;98854.50;;;19.42;67.77
66547;BME280;53400;50.364;14.874;2022-08-03T04:50:08;98855.19;;;19.47;67.69
66547;BME280;53400;50.364;14.874;2022-08-03T04:52:34;98855.22;;;19.29;68.55
66547;BME280;53400;50.364;14.874;2022-08-03T04:55:02;98852.38;;;19.39;67.73
66547;BME280;53400;50.364;14.874;2022-08-03T04:57:28;98857.31;;;19.69;67.60
66547;BME280;53400;50.364;14.874;2022-08-03T04:59:54;98860.41;;;19.77;66.93
66547;BME280;53400;50.364;14.874;2022-08-03T05:02:21;98865.28;;;20.35;64.38
66547;BME280;53400;50.364;14.874;2022-08-03T05:04:47;98863.25;;;20.68;63.53
66547;BME280;53400;50.364;14.874;2022-08-03T05:07:14;98857.13;;;21.66;60.91
66547;BME280;53400;50.364;14.874;2022-08-03T05:09:40;98856.66;;;21.42;61.05
66547;BME280;53400;50.364;14.874;2022-08-03T05:12:08;98858.94;;;21.48;59.95
66547;BME280;53400;50.364;14.874;2022-08-03T05:14:34;98859.59;;;22.48;58.47
66547;BME280;53400;50.364;14.874;2022-08-03T05:17:02;98861.47;;;21.98;58.82
66547;BME280;53400;50.364;14.874;2022-08-03T05:19:28;98861.66;;;21.26;60.99
66547;BME280;53400;50.364;14.874;2022-08-03T05:21:54;98856.97;;;22.25;57.24
66547;BME280;53400;50.364;14.874;2022-08-03T05:24:22;98859.81;;;22.20;57.54
66547;BME280;53400;50.364;14.874;2022-08-03T05:26:48;98846.91;;;22.12;57.13
66547;BME280;53400;50.364;14.874;2022-08-03T05:29:15;98849.31;;;22.05;58.25
66547;BME280;53400;50.364;14.874;2022-08-03T05:31:41;98858.53;;;23.35;54.65
66547;BME280;53400;50.364;14.874;2022-08-03T05:34:08;98856.75;;;22.87;54.95
66547;BME280;53400;50.364;14.874;2022-08-03T05:36:33;98861.13;;;22.97;54.49
66547;BME280;53400;50.364;14.874;2022-08-03T05:38:59;98864.72;;;22.40;56.27
66547;BME280;53400;50.364;14.874;2022-08-03T05:41:25;98861.00;;;23.93;52.46
66547;BME280;53400;50.364;14.874;2022-08-03T05:43:51;98859.09;;;23.85;53.10
66547;BME280;53400;50.364;14.874;2022-08-03T05:46:20;98867.72;;;24.34;51.16
66547;BME280;53400;50.364;14.874;2022-08-03T05:48:46;98864.78;;;24.09;51.34
66547;BME280;53400;50.364;14.874;2022-08-03T05:51:12;98864.50;;;23.11;52.95
66547;BME280;53400;50.364;14.874;2022-08-03T05:53:38;98865.22;;;23.81;52.94
66547;BME280;53400;50.364;14.874;2022-08-03T05:56:05;98861.41;;;23.48;52.30
66547;BME280;53400;50.364;14.874;2022-08-03T05:58:31;98874.91;;;24.77;50.61
66547;BME280;53400;50.364;14.874;2022-08-03T06:00:57;98866.81;;;25.43;49.09
66547;BME280;53400;50.364;14.874;2022-08-03T06:03:24;98873.81;;;25.20;48.23
66547;BME280;53400;50.364;14.874;2022-08-03T06:05:50;98865.06;;;24.55;49.30
66547;BME280;53400;50.364;14.874;2022-08-03T06:08:15;98865.47;;;23.97;51.24
66547;BME280;53400;50.364;14.874;2022-08-03T06:10:41;98861.97;;;25.28;48.93
66547;BME280;53400;50.364;14.874;2022-08-03T06:13:07;98864.81;;;25.10;48.84
66547;BME280;53400;50.364;14.874;2022-08-03T06:15:33;98866.97;;;25.59;47.52
66547;BME280;53400;50.364;14.874;2022-08-03T06:18:00;98861.94;;;24.65;49.36
66547;BME280;53400;50.364;14.874;2022-08-03T06:20:27;98865.22;;;24.79;49.04
66547;BME280;53400;50.364;14.874;2022-08-03T06:22:53;98867.13;;;25.08;48.15
66547;BME280;53400;50.364;14.874;2022-08-03T06:25:19;98861.31;;;25.76;46.07
66547;BME280;53400;50.364;14.874;2022-08-03T06:27:45;98871.47;;;26.46;45.62
66547;BME280;53400;50.364;14.874;2022-08-03T06:30:11;98865.72;;;26.14;45.04
66547;BME280;53400;50.364;14.874;2022-08-03T06:32:38;98865.88;;;26.54;43.68
66547;BME280;53400;50.364;14.874;2022-08-03T06:35:06;98883.22;;;25.97;45.00
66547;BME280;53400;50.364;14.874;2022-08-03T06:37:42;98866.91;;;26.50;43.92
66547;BME280;53400;50.364;14.874;2022-08-03T06:40:10;98873.50;;;25.54;45.75
66547;BME280;53400;50.364;14.874;2022-08-03T06:42:36;98883.28;;;25.22;47.77
66547;BME280;53400;50.364;14.874;2022-08-03T06:45:02;98874.25;;;25.76;46.80
66547;BME280;53400;50.364;14.874;2022-08-03T06:47:28;98875.25;;;26.53;44.91
66547;BME280;53400;50.364;14.874;2022-08-03T06:49:54;98880.91;;;25.21;47.58
66547;BME280;53400;50.364;14.874;2022-08-03T06:52:20;98886.97;;;25.93;46.22
66547;BME280;53400;50.364;14.874;2022-08-03T06:54:47;98884.50;;;26.00;45.67
66547;BME280;53400;50.364;14.874;2022-08-03T06:57:13;98886.38;;;26.57;44.92
66547;BME280;53400;50.364;14.874;2022-08-03T06:59:41;98886.63;;;25.82;46.22
66547;BME280;53400;50.364;14.874;2022-08-03T07:02:06;98881.97;;;26.44;45.69
66547;BME280;53400;50.364;14.874;2022-08-03T07:04:34;98881.59;;;26.94;44.00
66547;BME280;53400;50.364;14.874;2022-08-03T07:07:00;98882.28;;;27.04;44.09
66547;BME280;53400;50.364;14.874;2022-08-03T07:09:26;98887.75;;;25.81;46.48
66547;BME280;53400;50.364;14.874;2022-08-03T07:11:54;98887.38;;;25.16;47.37
66547;BME280;53400;50.364;14.874;2022-08-03T07:14:20;98884.59;;;24.74;49.10
66547;BME280;53400;50.364;14.874;2022-08-03T07:16:46;98889.41;;;25.94;46.78
66547;BME280;53400;50.364;14.874;2022-08-03T07:19:12;98887.81;;;25.60;48.33
66547;BME280;53400;50.364;14.874;2022-08-03T07:21:37;98882.25;;;25.81;47.49
66547;BME280;53400;50.364;14.874;2022-08-03T07:24:07;98881.72;;;24.41;50.38
66547;BME280;53400;50.364;14.874;2022-08-03T07:26:33;98890.69;;;25.76;48.09
66547;BME280;53400;50.364;14.874;2022-08-03T07:29:00;98886.91;;;25.80;47.13
66547;BME280;53400;50.364;14.874;2022-08-03T07:31:26;98889.81;;;25.51;47.06
66547;BME280;53400;50.364;14.874;2022-08-03T07:33:52;98892.78;;;25.25;49.66
66547;BME280;53400;50.364;14.874;2022-08-03T07:36:17;98891.28;;;26.39;46.14
66547;BME280;53400;50.364;14.874;2022-08-03T07:38:43;98889.78;;;26.66;45.63
66547;BME280;53400;50.364;14.874;2022-08-03T07:41:09;98881.34;;;27.12;43.80
66547;BME280;53400;50.364;14.874;2022-08-03T07:43:35;98883.09;;;27.32;44.09
66547;BME280;53400;50.364;14.874;2022-08-03T07:46:02;98879.63;;;27.07;43.71
66547;BME280;53400;50.364;14.874;2022-08-03T07:48:28;98881.53;;;27.31;43.24
66547;BME280;53400;50.364;14.874;2022-08-03T07:50:54;98873.78;;;27.21;43.59
66547;BME280;53400;50.364;14.874;2022-08-03T07:53:20;98877.44;;;26.48;44.99
66547;BME280;53400;50.364;14.874;2022-08-03T07:55:46;98875.63;;;27.05;44.15
66547;BME280;53400;50.364;14.874;2022-08-03T07:58:12;98884.22;;;27.43;43.29
66547;BME280;53400;50.364;14.874;2022-08-03T08:00:40;98883.84;;;27.17;43.89
66547;BME280;53400;50.364;14.874;2022-08-03T08:03:08;98879.00;;;27.26;44.77
66547;BME280;53400;50.364;14.874;2022-08-03T08:05:34;98882.69;;;27.74;43.29
66547;BME280;53400;50.364;14.874;2022-08-03T08:08:01;98887.03;;;27.75;43.58
66547;BME280;53400;50.364;14.874;2022-08-03T08:10:27;98877.84;;;27.99;42.56
66547;BME280;53400;50.364;14.874;2022-08-03T08:12:53;98882.56;;;27.55;44.06
66547;BME280;53400;50.364;14.874;2022-08-03T08:15:19;98882.84;;;28.09;42.64
66547;BME280;53400;50.364;14.874;2022-08-03T08:17:46;98876.84;;;28.39;41.42
66547;BME280;53400;50.364;14.874;2022-08-03T08:20:17;98873.78;;;27.65;42.33
66547;BME280;53400;50.364;14.874;2022-08-03T08:22:43;98877.41;;;27.53;44.22
66547;BME280;53400;50.364;14.874;2022-08-03T08:25:09;98873.56;;;27.02;45.48
66547;BME280;53400;50.364;14.874;2022-08-03T08:27:40;98872.25;;;26.71;46.49
66547;BME280;53400;50.364;14.874;2022-08-03T08:30:07;98872.25;;;26.83;44.92
66547;BME280;53400;50.364;14.874;2022-08-03T08:32:34;98866.75;;;26.83;43.58
66547;BME280;53400;50.364;14.874;2022-08-03T08:35:01;98867.56;;;26.47;46.99
66547;BME280;53400;50.364;14.874;2022-08-03T08:37:29;98863.34;;;27.71;43.80
66547;BME280;53400;50.364;14.874;2022-08-03T08:39:55;98872.88;;;28.36;42.88
66547;BME280;53400;50.364;14.874;2022-08-03T08:42:20;98871.19;;;28.83;40.57
66547;BME280;53400;50.364;14.874;2022-08-03T08:44:47;98870.53;;;28.54;42.02
66547;BME280;53400;50.364;14.874;2022-08-03T08:47:13;98870.69;;;29.13;41.19
66547;BME280;53400;50.364;14.874;2022-08-03T08:49:39;98872.31;;;29.37;40.08
66547;BME280;53400;50.364;14.874;2022-08-03T08:52:06;98867.03;;;28.22;41.75
66547;BME280;53400;50.364;14.874;2022-08-03T08:54:35;98862.22;;;27.43;43.62
66547;BME280;53400;50.364;14.874;2022-08-03T08:57:03;98863.25;;;27.67;43.54
66547;BME280;53400;50.364;14.874;2022-08-03T08:59:34;98860.97;;;28.17;44.11
66547;BME280;53400;50.364;14.874;2022-08-03T09:02:00;98859.59;;;28.74;42.01
66547;BME280;53400;50.364;14.874;2022-08-03T09:04:27;98867.91;;;29.32;39.58
66547;BME280;53400;50.364;14.874;2022-08-03T09:06:54;98859.66;;;29.75;39.07
66547;BME280;53400;50.364;14.874;2022-08-03T09:09:20;98866.16;;;29.63;38.67
66547;BME280;53400;50.364;14.874;2022-08-03T09:11:48;98856.16;;;29.16;39.48
66547;BME280;53400;50.364;14.874;2022-08-03T09:14:14;98850.75;;;28.49;42.28
66547;BME280;53400;50.364;14.874;2022-08-03T09:16:55;98852.72;;;29.42;39.21
66547;BME280;53400;50.364;14.874;2022-08-03T09:19:23;98856.44;;;29.30;39.06
66547;BME280;53400;50.364;14.874;2022-08-03T09:22:06;98852.44;;;29.08;41.58
66547;BME280;53400;50.364;14.874;2022-08-03T09:24:33;98858.50;;;29.99;38.95
66547;BME280;53400;50.364;14.874;2022-08-03T09:27:00;98846.59;;;29.71;38.49
66547;BME280;53400;50.364;14.874;2022-08-03T09:29:31;98852.19;;;29.75;38.56
66547;BME280;53400;50.364;14.874;2022-08-03T09:32:00;98839.00;;;29.88;38.31
66547;BME280;53400;50.364;14.874;2022-08-03T09:34:26;98851.16;;;30.29;38.75
66547;BME280;53400;50.364;14.874;2022-08-03T09:36:55;98857.00;;;30.51;38.34
66547;BME280;53400;50.364;14.874;2022-08-03T09:39:24;98844.97;;;30.93;37.48
66547;BME280;53400;50.364;14.874;2022-08-03T09:42:06;98847.19;;;30.30;38.02
66547;BME280;53400;50.364;14.874;2022-08-03T09:44:33;98843.47;;;30.46;37.29
66547;BME280;53400;50.364;14.874;2022-08-03T09:47:00;98846.47;;;30.60;38.20
66547;BME280;53400;50.364;14.874;2022-08-03T09:49:26;98841.81;;;31.28;36.72
66547;BME280;53400;50.364;14.874;2022-08-03T09:51:52;98841.44;;;31.29;37.40
66547;BME280;53400;50.364;14.874;2022-08-03T09:54:25;98841.38;;;30.62;36.44
66547;BME280;53400;50.364;14.874;2022-08-03T09:56:52;98834.00;;;31.03;35.26
66547;BME280;53400;50.364;14.874;2022-08-03T09:59:24;98834.44;;;30.75;36.69
66547;BME280;53400;50.364;14.874;2022-08-03T10:01:50;98827.97;;;31.28;35.67
66547;BME280;53400;50.364;14.874;2022-08-03T10:04:16;98825.41;;;31.08;36.69
66547;BME280;53400;50.364;14.874;2022-08-03T10:06:43;98829.84;;;30.30;36.45
66547;BME280;53400;50.364;14.874;2022-08-03T10:09:10;98832.31;;;30.65;36.67
66547;BME280;53400;50.364;14.874;2022-08-03T10:11:38;98827.25;;;30.71;36.76
66547;BME280;53400;50.364;14.874;2022-08-03T10:14:06;98833.34;;;30.80;36.06
66547;BME280;53400;50.364;14.874;2022-08-03T10:16:35;98832.47;;;31.40;35.16
66547;BME280;53400;50.364;14.874;2022-08-03T10:19:02;98828.91;;;31.36;35.34
66547;BME280;53400;50.364;14.874;2022-08-03T10:21:32;98818.69;;;31.43;35.61
66547;BME280;53400;50.364;14.874;2022-08-03T10:23:58;98822.47;;;30.98;34.76
66547;BME280;53400;50.364;14.874;2022-08-03T10:26:30;98826.25;;;30.82;35.37
66547;BME280;53400;50.364;14.874;2022-08-03T10:28:59;98817.31;;;31.26;35.04
66547;BME280;53400;50.364;14.874;2022-08-03T10:31:30;98824.38;;;31.58;33.41
66547;BME280;53400;50.364;14.874;2022-08-03T10:33:59;98822.31;;;31.47;34.40
66547;BME280;53400;50.364;14.874;2022-08-03T10:36:29;98814.31;;;31.83;33.00
66547;BME280;53400;50.364;14.874;2022-08-03T10:38:56;98821.25;;;32.07;33.05
66547;BME280;53400;50.364;14.874;2022-08-03T10:41:25;98817.16;;;32.38;32.74
66547;BME280;53400;50.364;14.874;2022-08-03T10:43:58;98820.28;;;32.33;33.42
66547;BME280;53400;50.364;14.874;2022-08-03T10:46:27;98814.44;;;32.46;32.08
66547;BME280;53400;50.364;14.874;2022-08-03T10:48:53;98814.44;;;32.46;31.96
66547;BME280;53400;50.364;14.874;2022-08-03T10:51:22;98813.50;;;31.04;33.67
66547;BME280;53400;50.364;14.874;2022-08-03T10:53:49;98809.38;;;30.91;34.90
66547;BME280;53400;50.364;14.874;2022-08-03T10:56:37;98803.88;;;31.66;32.09
66547;BME280;53400;50.364;14.874;2022-08-03T11:02:18;98804.00;;;31.80;32.82
66547;BME280;53400;50.364;14.874;2022-08-03T11:04:44;98800.53;;;32.42;30.91
66547;BME280;53400;50.364;14.874;2022-08-03T11:07:21;98799.19;;;31.33;32.92
66547;BME280;53400;50.364;14.874;2022-08-03T11:09:49;98794.88;;;31.76;32.36
66547;BME280;53400;50.364;14.874;2022-08-03T11:12:22;98794.66;;;31.95;32.21
66547;BME280;53400;50.364;14.874;2022-08-03T11:14:48;98793.97;;;32.06;31.89
66547;BME280;53400;50.364;14.874;2022-08-03T11:17:14;98797.66;;;32.28;33.12
66547;BME280;53400;50.364;14.874;2022-08-03T11:19:44;98789.25;;;31.65;32.35
66547;BME280;53400;50.364;14.874;2022-08-03T11:22:10;98796.63;;;32.47;31.01
66547;BME280;53400;50.364;14.874;2022-08-03T11:25:10;98781.78;;;32.90;30.16
66547;BME280;53400;50.364;14.874;2022-08-03T11:27:39;98790.19;;;33.08;31.14
66547;BME280;53400;50.364;14.874;2022-08-03T11:30:06;98791.03;;;33.38;29.89
66547;BME280;53400;50.364;14.874;2022-08-03T11:32:56;98799.41;;;33.45;30.15
66547;BME280;53400;50.364;14.874;2022-08-03T11:35:26;98793.34;;;33.03;31.04
66547;BME280;53400;50.364;14.874;2022-08-03T11:38:08;98790.69;;;32.44;30.91
66547;BME280;53400;50.364;14.874;2022-08-03T11:40:41;98788.75;;;32.59;31.53
66547;BME280;53400;50.364;14.874;2022-08-03T11:43:10;98777.44;;;32.93;30.86
66547;BME280;53400;50.364;14.874;2022-08-03T11:45:56;98774.97;;;32.77;30.68
66547;BME280;53400;50.364;14.874;2022-08-03T11:48:26;98776.53;;;32.67;30.13
66547;BME280;53400;50.364;14.874;2022-08-03T11:50:52;98772.34;;;33.06;31.29
66547;BME280;53400;50.364;14.874;2022-08-03T11:53:18;98779.34;;;32.75;32.06
66547;BME280;53400;50.364;14.874;2022-08-03T11:55:46;98772.53;;;31.99;31.18
66547;BME280;53400;50.364;14.874;2022-08-03T11:58:18;98774.25;;;32.87;31.80
66547;BME280;53400;50.364;14.874;2022-08-03T12:00:44;98769.47;;;31.63;33.08
66547;BME280;53400;50.364;14.874;2022-08-03T12:03:11;98767.97;;;32.28;32.97
66547;BME280;53400;50.364;14.874;2022-08-03T12:05:44;98770.41;;;32.40;31.02
66547;BME280;53400;50.364;14.874;2022-08-03T12:08:12;98771.88;;;32.93;31.13
66547;BME280;53400;50.364;14.874;2022-08-03T12:10:39;98764.53;;;31.42;30.87
66547;BME280;53400;50.364;14.874;2022-08-03T12:13:07;98773.84;;;30.63;32.35
66547;BME280;53400;50.364;14.874;2022-08-03T12:15:34;98760.06;;;30.97;32.94
66547;BME280;53400;50.364;14.874;2022-08-03T12:18:02;98760.84;;;31.72;33.30
66547;BME280;53400;50.364;14.874;2022-08-03T12:20:31;98751.47;;;32.46;32.78
66547;BME280;53400;50.364;14.874;2022-08-03T12:23:04;98750.84;;;32.88;31.30
66547;BME280;53400;50.364;14.874;2022-08-03T12:25:31;98759.69;;;33.26;29.41
66547;BME280;53400;50.364;14.874;2022-08-03T12:28:11;98752.56;;;33.18;29.61
66547;BME280;53400;50.364;14.874;2022-08-03T12:30:38;98748.47;;;32.83;31.77
66547;BME280;53400;50.364;14.874;2022-08-03T12:33:19;98751.00;;;32.33;32.21
66547;BME280;53400;50.364;14.874;2022-08-03T12:35:47;98753.91;;;32.55;32.32
66547;BME280;53400;50.364;14.874;2022-08-03T12:38:18;98739.34;;;32.79;30.95
66547;BME280;53400;50.364;14.874;2022-08-03T12:40:54;98749.34;;;33.02;30.33
66547;BME280;53400;50.364;14.874;2022-08-03T12:43:22;98751.69;;;32.96;30.65
66547;BME280;53400;50.364;14.874;2022-08-03T12:45:49;98747.41;;;33.27;28.83
66547;BME280;53400;50.364;14.874;2022-08-03T12:48:15;98745.47;;;33.53;28.27
66547;BME280;53400;50.364;14.874;2022-08-03T12:50:41;98742.69;;;33.42;28.71
66547;BME280;53400;50.364;14.874;2022-08-03T12:53:09;98743.91;;;33.77;28.75
66547;BME280;53400;50.364;14.874;2022-08-03T12:55:35;98734.13;;;32.60;30.97
66547;BME280;53400;50.364;14.874;2022-08-03T12:58:04;98743.03;;;33.16;30.70
66547;BME280;53400;50.364;14.874;2022-08-03T13:00:31;98724.34;;;32.98;30.77
66547;BME280;53400;50.364;14.874;2022-08-03T13:03:02;98728.06;;;33.63;28.80